createdAt,value
2022-09-06T00:00:32.570Z,99838.22
2022-09-06T00:03:01.315Z,99840.03
2022-09-06T00:05:30.865Z,99840.41
2022-09-06T00:07:59.892Z,99840.03
2022-09-06T00:10:29.122Z,99838.25
2022-09-06T00:13:01.180Z,99837.22
2022-09-06T00:15:31.881Z,99839.03
2022-09-06T00:18:01.009Z,99834.63
2022-09-06T00:20:30.109Z,99838.84
2022-09-06T00:22:59.519Z,99836.09
2022-09-06T00:25:28.987Z,99835.31
2022-09-06T00:27:58.313Z,99834.69
2022-09-06T00:30:27.849Z,99837.53
2022-09-06T00:32:58.563Z,99827.47
2022-09-06T00:35:28.275Z,99831.97
2022-09-06T00:38:01.600Z,99830.84
2022-09-06T00:40:35.165Z,99836.44
2022-09-06T00:43:03.854Z,99833.19
2022-09-06T00:45:33.378Z,99834.75
2022-09-06T00:48:05.974Z,99839.16
2022-09-06T00:50:35.304Z,99835.69
2022-09-06T00:53:03.951Z,99842.97
2022-09-06T00:55:32.370Z,99843.53
2022-09-06T00:58:01.206Z,99847.59
2022-09-06T01:00:29.627Z,99842.09
2022-09-06T01:02:58.014Z,99845.38
2022-09-06T01:05:39.594Z,99847.66
2022-09-06T01:08:17.702Z,99853.06
2022-09-06T01:11:08.761Z,99846.09
2022-09-06T01:13:47.399Z,99851.28
2022-09-06T01:16:30.497Z,99855.44
2022-09-06T01:19:23.749Z,99844.31
2022-09-06T01:22:01.344Z,99855.09
2022-09-06T01:25:08.618Z,99856.19
2022-09-06T01:28:19.307Z,99855.41
2022-09-06T01:30:53.038Z,99848.94
2022-09-06T01:33:30.487Z,99857.66
2022-09-06T01:36:02.791Z,99866.66
2022-09-06T01:38:31.626Z,99871.06
2022-09-06T01:41:00.000Z,99871.38
2022-09-06T01:43:32.944Z,99867.59
2022-09-06T01:46:08.364Z,99860.34
2022-09-06T01:48:48.149Z,99854.06
2022-09-06T01:51:29.661Z,99851.84
2022-09-06T01:54:13.512Z,99856.25
2022-09-06T01:56:51.972Z,99854.91
2022-09-06T01:59:35.936Z,99858.09
2022-09-06T02:02:10.268Z,99859.00
2022-09-06T02:04:45.894Z,99855.19
2022-09-06T02:07:20.201Z,99850.38
2022-09-06T02:09:54.443Z,99854.06
2022-09-06T02:12:25.924Z,99848.97
2022-09-06T02:14:59.937Z,99853.22
2022-09-06T02:17:33.849Z,99853.28
2022-09-06T02:20:07.251Z,99859.25
2022-09-06T02:22:41.104Z,99854.47
2022-09-06T02:25:14.349Z,99854.28
2022-09-06T02:27:43.065Z,99855.13
2022-09-06T02:30:14.010Z,99862.00
2022-09-06T02:32:49.588Z,99851.31
2022-09-06T02:35:18.955Z,99850.72
2022-09-06T02:37:47.955Z,99851.75
2022-09-06T02:40:16.586Z,99853.31
2022-09-06T02:42:45.255Z,99851.69
2022-09-06T02:45:15.252Z,99849.88
2022-09-06T02:47:44.100Z,99847.22
2022-09-06T02:50:15.369Z,99843.63
2022-09-06T02:52:43.808Z,99844.63
2022-09-06T02:55:12.377Z,99840.38
2022-09-06T02:57:41.300Z,99848.50
2022-09-06T03:00:11.216Z,99839.03
2022-09-06T03:02:41.014Z,99843.72
2022-09-06T03:05:10.620Z,99845.50
2022-09-06T03:07:39.068Z,99848.09
2022-09-06T03:10:08.240Z,99839.25
2022-09-06T03:12:36.905Z,99833.88
2022-09-06T03:15:06.051Z,99832.00
2022-09-06T03:17:34.484Z,99832.72
2022-09-06T03:20:05.904Z,99840.53
2022-09-06T03:22:34.353Z,99837.06
2022-09-06T03:25:02.756Z,99838.88
2022-09-06T03:27:31.394Z,99841.47
2022-09-06T03:29:59.790Z,99834.28
2022-09-06T03:32:28.172Z,99839.22
2022-09-06T03:34:56.765Z,99838.44
2022-09-06T03:37:26.633Z,99836.63
2022-09-06T03:39:55.012Z,99838.50
2022-09-06T03:42:26.452Z,99823.31
2022-09-06T03:44:54.977Z,99834.84
2022-09-06T03:47:23.383Z,99834.69
2022-09-06T03:49:52.196Z,99832.09
2022-09-06T03:52:20.656Z,99828.72
2022-09-06T03:54:50.434Z,99826.94
2022-09-06T03:57:19.191Z,99821.38
2022-09-06T03:59:47.585Z,99831.09
2022-09-06T04:02:16.447Z,99823.09
2022-09-06T04:04:45.059Z,99823.91
2022-09-06T04:07:13.472Z,99823.03
2022-09-06T04:09:41.861Z,99818.56
2022-09-06T04:12:11.875Z,99822.00
2022-09-06T04:14:40.344Z,99826.38
2022-09-06T04:17:08.755Z,99825.47
2022-09-06T04:19:37.384Z,99824.44
2022-09-06T04:22:05.828Z,99813.78
2022-09-06T04:24:34.249Z,99819.81
2022-09-06T04:27:02.897Z,99824.03
2022-09-06T04:29:32.729Z,99822.97
2022-09-06T04:32:01.307Z,99826.50
2022-09-06T04:34:30.133Z,99827.66
2022-09-06T04:36:58.632Z,99821.38
2022-09-06T04:39:27.248Z,99818.25
2022-09-06T04:41:55.906Z,99830.41
2022-09-06T04:44:24.316Z,99823.25
2022-09-06T04:47:09.295Z,99826.72
2022-09-06T04:49:38.305Z,99822.66
2022-09-06T04:52:06.967Z,99820.78
2022-09-06T04:54:35.634Z,99825.06
2022-09-06T04:57:04.992Z,99822.97
2022-09-06T04:59:33.510Z,99821.94
2022-09-06T05:02:03.376Z,99826.41
2022-09-06T05:04:32.249Z,99829.84
2022-09-06T05:07:04.682Z,99832.06
2022-09-06T05:09:33.955Z,99839.28
2022-09-06T05:12:03.029Z,99841.41
2022-09-06T05:14:31.995Z,99835.47
2022-09-06T05:17:00.647Z,99838.38
2022-09-06T05:19:30.451Z,99841.34
2022-09-06T05:21:58.888Z,99838.59
2022-09-06T05:24:27.527Z,99843.91
2022-09-06T05:26:55.924Z,99844.91
2022-09-06T05:29:27.587Z,99844.59
2022-09-06T05:31:59.221Z,99853.72
2022-09-06T05:34:27.721Z,99850.38
2022-09-06T05:36:57.972Z,99855.34
2022-09-06T05:39:26.659Z,99859.47
2022-09-06T05:41:55.414Z,99852.28
2022-09-06T05:44:23.858Z,99859.03
2022-09-06T05:46:53.630Z,99854.06
2022-09-06T05:49:22.010Z,99855.09
2022-09-06T05:51:52.576Z,99850.88
2022-09-06T05:54:23.059Z,99849.38
2022-09-06T05:56:51.568Z,99852.28
2022-09-06T05:59:20.064Z,99857.19
2022-09-06T06:01:50.407Z,99857.38
2022-09-06T06:04:20.133Z,99862.53
2022-09-06T06:06:49.048Z,99852.59
2022-09-06T06:09:18.776Z,99851.41
2022-09-06T06:11:48.805Z,99853.91
2022-09-06T06:14:17.185Z,99853.63
2022-09-06T06:16:46.090Z,99854.28
2022-09-06T06:19:15.379Z,99851.47
2022-09-06T06:21:43.815Z,99848.09
2022-09-06T06:24:12.469Z,99845.47
2022-09-06T06:26:40.860Z,99844.63
2022-09-06T06:29:10.630Z,99847.03
2022-09-06T06:31:40.254Z,99844.94
2022-09-06T06:34:09.300Z,99852.03
2022-09-06T06:36:38.088Z,99852.22
2022-09-06T06:39:09.199Z,99849.47
2022-09-06T06:41:37.827Z,99850.50
2022-09-06T06:44:27.399Z,99849.81
2022-09-06T06:46:57.951Z,99851.53
2022-09-06T06:49:26.687Z,99844.81
2022-09-06T06:51:55.140Z,99850.41
2022-09-06T06:54:23.544Z,99846.25
2022-09-06T06:56:52.107Z,99850.81
2022-09-06T06:59:20.600Z,99843.75
2022-09-06T07:01:50.785Z,99849.19
2022-09-06T07:04:19.948Z,99851.00
2022-09-06T07:12:28.017Z,99859.94
2022-09-06T07:14:56.800Z,99858.34
2022-09-06T07:17:26.583Z,99859.34
2022-09-06T07:22:44.140Z,99865.03
2022-09-06T07:25:20.381Z,99861.38
2022-09-06T07:27:50.617Z,99853.84
2022-09-06T07:30:20.740Z,99860.38
2022-09-06T07:32:50.656Z,99858.88
2022-09-06T07:35:20.473Z,99860.47
2022-09-06T07:37:56.352Z,99858.16
2022-09-06T07:40:25.638Z,99860.47
2022-09-06T07:42:54.487Z,99859.66
2022-09-06T07:45:22.927Z,99861.22
2022-09-06T07:47:59.059Z,99862.19
2022-09-06T07:53:24.569Z,99861.78
2022-09-06T07:56:00.291Z,99859.53
2022-09-06T07:58:30.220Z,99868.97
2022-09-06T08:01:18.072Z,99866.97
2022-09-06T08:03:48.862Z,99871.22
2022-09-06T08:06:17.295Z,99876.47
2022-09-06T08:09:01.170Z,99873.44
2022-09-06T08:11:32.719Z,99868.56
2022-09-06T08:14:02.707Z,99871.63
2022-09-06T08:16:32.423Z,99869.91
2022-09-06T08:19:04.718Z,99872.28
2022-09-06T08:21:35.124Z,99876.00
2022-09-06T08:24:05.780Z,99868.97
2022-09-06T08:26:36.833Z,99867.25
2022-09-06T08:29:07.654Z,99868.59
2022-09-06T08:31:37.990Z,99858.22
2022-09-06T08:34:08.880Z,99864.84
2022-09-06T08:36:37.531Z,99854.72
2022-09-06T08:39:09.077Z,99859.84
2022-09-06T08:41:47.958Z,99862.28
2022-09-06T08:47:10.531Z,99854.56
2022-09-06T08:49:45.050Z,99850.06
2022-09-06T08:52:26.882Z,99850.47
2022-09-06T08:55:03.655Z,99844.56
2022-09-06T08:57:51.825Z,99845.56
2022-09-06T09:00:21.293Z,99843.63
2022-09-06T09:02:53.947Z,99847.25
2022-09-06T09:05:28.922Z,99842.63
2022-09-06T09:08:07.036Z,99841.78
2022-09-06T09:10:43.581Z,99842.31
2022-09-06T09:13:28.704Z,99842.75
2022-09-06T09:15:58.379Z,99842.28
2022-09-06T09:18:31.346Z,99835.84
2022-09-06T09:21:01.851Z,99841.72
2022-09-06T09:23:30.980Z,99836.63
2022-09-06T09:26:06.451Z,99836.31
2022-09-06T09:28:35.885Z,99831.13
2022-09-06T09:31:06.762Z,99831.03
2022-09-06T09:33:38.910Z,99838.13
2022-09-06T09:36:13.582Z,99833.72
2022-09-06T09:38:45.786Z,99832.41
2022-09-06T09:41:28.718Z,99832.53
2022-09-06T09:44:03.661Z,99833.03
2022-09-06T09:46:34.261Z,99835.22
2022-09-06T09:49:06.659Z,99829.63
2022-09-06T09:51:38.124Z,99823.72
2022-09-06T09:54:08.845Z,99823.13
2022-09-06T09:56:43.505Z,99826.03
2022-09-06T09:59:23.174Z,99814.28
2022-09-06T10:01:55.392Z,99821.88
2022-09-06T10:04:46.232Z,99814.19
2022-09-06T10:07:18.875Z,99811.00
2022-09-06T10:09:48.972Z,99806.34
2022-09-06T10:12:19.611Z,99808.94
2022-09-06T10:14:49.209Z,99802.06
2022-09-06T10:17:28.847Z,99807.78
2022-09-06T10:19:57.909Z,99804.47
2022-09-06T10:22:31.169Z,99808.88
2022-09-06T10:25:35.151Z,99804.34
2022-09-06T10:28:32.710Z,99798.78
2022-09-06T10:31:27.245Z,99795.09
2022-09-06T10:34:07.663Z,99790.19
2022-09-06T10:36:38.566Z,99802.09
2022-09-06T10:39:24.617Z,99790.38
2022-09-06T10:42:10.790Z,99791.50
2022-09-06T10:44:53.114Z,99788.38
2022-09-06T10:47:24.745Z,99780.72
2022-09-06T10:49:58.989Z,99773.63
2022-09-06T10:52:35.349Z,99772.31
2022-09-06T10:55:10.344Z,99780.72
2022-09-06T11:00:40.470Z,99770.72
2022-09-06T11:06:08.942Z,99776.88
2022-09-06T11:11:23.182Z,99781.03
2022-09-06T11:13:51.634Z,99779.31
2022-09-06T11:16:25.085Z,99771.94
2022-09-06T11:19:00.592Z,99774.53
2022-09-06T11:21:48.585Z,99767.91
2022-09-06T11:24:23.949Z,99768.06
2022-09-06T11:27:06.110Z,99779.44
2022-09-06T11:29:36.044Z,99779.56
2022-09-06T11:32:26.380Z,99765.22
2022-09-06T11:34:57.343Z,99760.91
2022-09-06T11:37:29.196Z,99758.72
2022-09-06T11:40:30.444Z,99756.06
2022-09-06T11:43:19.792Z,99753.97
2022-09-06T11:45:51.070Z,99751.28
2022-09-06T11:48:35.357Z,99756.81
2022-09-06T11:51:10.710Z,99750.41
2022-09-06T11:54:12.407Z,99736.09
2022-09-06T11:56:44.190Z,99741.69
2022-09-06T11:59:29.872Z,99734.53
2022-09-06T12:02:03.265Z,99730.41
2022-09-06T12:05:11.969Z,99728.00
2022-09-06T12:08:18.687Z,99721.47
2022-09-06T12:10:52.433Z,99715.34
2022-09-06T12:13:43.767Z,99711.50
2022-09-06T12:16:15.324Z,99711.84
2022-09-06T12:19:01.706Z,99713.94
2022-09-06T12:21:38.136Z,99709.19
2022-09-06T12:24:08.219Z,99705.59
2022-09-06T12:26:50.785Z,99697.56
2022-09-06T12:29:25.763Z,99697.19
2022-09-06T12:32:00.867Z,99697.97
2022-09-06T12:34:31.713Z,99695.19
2022-09-06T12:37:02.385Z,99684.59
2022-09-06T12:39:30.884Z,99685.06
2022-09-06T12:42:03.399Z,99679.06
2022-09-06T12:44:36.748Z,99676.13
2022-09-06T12:47:15.023Z,99677.13
2022-09-06T12:49:43.638Z,99672.91
2022-09-06T12:52:14.279Z,99672.91
2022-09-06T12:54:48.208Z,99668.38
2022-09-06T12:57:21.888Z,99667.13
2022-09-06T12:59:55.799Z,99669.91
2022-09-06T13:02:34.525Z,99658.28
2022-09-06T13:05:06.728Z,99660.44
2022-09-06T13:07:41.373Z,99664.50
2022-09-06T13:10:11.323Z,99663.63
2022-09-06T13:12:43.661Z,99662.63
2022-09-06T13:15:17.920Z,99663.78
2022-09-06T13:17:48.342Z,99662.06
2022-09-06T13:20:24.671Z,99660.59
2022-09-06T13:22:54.266Z,99658.38
2022-09-06T13:25:27.206Z,99657.00
2022-09-06T13:27:58.642Z,99658.78
2022-09-06T13:30:32.921Z,99654.81
2022-09-06T13:33:04.348Z,99656.97
2022-09-06T13:35:35.576Z,99648.88
2022-09-06T13:38:41.986Z,99640.94
2022-09-06T13:41:42.508Z,99642.06
2022-09-06T13:44:28.513Z,99643.25
2022-09-06T13:46:56.941Z,99645.00
2022-09-06T13:49:27.318Z,99641.97
2022-09-06T13:52:00.192Z,99642.13
2022-09-06T13:54:29.596Z,99632.31
2022-09-06T13:56:58.419Z,99631.44
2022-09-06T13:59:26.979Z,99635.31
2022-09-06T14:02:02.018Z,99634.88
2022-09-06T14:04:32.607Z,99634.31
2022-09-06T14:07:01.386Z,99634.31
2022-09-06T14:09:30.026Z,99631.59
2022-09-06T14:11:59.245Z,99631.31
2022-09-06T14:14:28.183Z,99628.19
2022-09-06T14:16:57.078Z,99631.59
2022-09-06T14:19:25.656Z,99620.44
2022-09-06T14:21:55.899Z,99620.28
2022-09-06T14:24:24.496Z,99617.59
2022-09-06T14:26:53.042Z,99610.78
2022-09-06T14:29:21.807Z,99604.94
2022-09-06T14:31:50.234Z,99598.84
2022-09-06T14:34:18.707Z,99602.13
2022-09-06T14:36:47.325Z,99610.22
2022-09-06T14:39:17.187Z,99602.69
2022-09-06T14:41:45.703Z,99607.78
2022-09-06T14:44:14.417Z,99604.09
2022-09-06T14:46:43.001Z,99603.66
2022-09-06T14:49:11.700Z,99598.38
2022-09-06T14:51:40.992Z,99603.63
2022-09-06T14:54:11.632Z,99608.34
2022-09-06T14:56:43.760Z,99599.25
2022-09-06T14:59:13.014Z,99599.94
2022-09-06T15:01:41.601Z,99598.69
2022-09-06T15:04:11.848Z,99601.50
2022-09-06T15:06:44.941Z,99603.22
2022-09-06T15:09:13.599Z,99591.56
2022-09-06T15:11:45.853Z,99593.28
2022-09-06T15:14:16.840Z,99591.41
2022-09-06T15:16:46.142Z,99586.72
2022-09-06T15:19:15.119Z,99580.50
2022-09-06T15:21:43.866Z,99575.63
2022-09-06T15:24:13.012Z,99574.91
2022-09-06T15:26:43.555Z,99577.56
2022-09-06T15:29:13.146Z,99577.28
2022-09-06T15:31:43.041Z,99579.41
2022-09-06T15:34:12.174Z,99580.97
2022-09-06T15:36:41.114Z,99577.69
2022-09-06T15:39:09.957Z,99583.22
2022-09-06T15:41:40.701Z,99573.97
2022-09-06T15:44:12.993Z,99571.28
2022-09-06T15:46:45.799Z,99571.19
2022-09-06T15:49:16.227Z,99572.47
2022-09-06T15:51:45.386Z,99570.19
2022-09-06T15:54:15.191Z,99569.88
2022-09-06T15:56:44.419Z,99567.75
2022-09-06T15:59:14.519Z,99567.31
2022-09-06T16:01:43.114Z,99567.19
2022-09-06T16:04:11.707Z,99569.00
2022-09-06T16:06:43.149Z,99559.50
2022-09-06T16:09:14.513Z,99560.63
2022-09-06T16:11:43.416Z,99560.94
2022-09-06T16:14:15.434Z,99568.59
2022-09-06T16:16:44.832Z,99566.56
2022-09-06T16:19:14.202Z,99565.31
2022-09-06T16:21:44.832Z,99567.03
2022-09-06T16:24:19.293Z,99563.50
2022-09-06T16:26:48.065Z,99561.66
2022-09-06T16:29:20.305Z,99559.66
2022-09-06T16:31:50.630Z,99565.31
2022-09-06T16:34:19.347Z,99557.63
2022-09-06T16:36:50.078Z,99558.91
2022-09-06T16:39:18.800Z,99561.97
2022-09-06T16:41:47.855Z,99558.09
2022-09-06T16:44:19.423Z,99557.66
2022-09-06T16:46:50.363Z,99557.19
2022-09-06T16:49:19.606Z,99564.09
2022-09-06T16:51:49.664Z,99564.56
2022-09-06T16:54:19.303Z,99559.72
2022-09-06T16:56:47.844Z,99550.94
2022-09-06T16:59:18.116Z,99559.25
2022-09-06T17:01:47.304Z,99561.75
2022-09-06T17:04:16.377Z,99555.16
2022-09-06T17:06:45.869Z,99551.28
2022-09-06T17:09:16.576Z,99549.34
2022-09-06T17:11:45.229Z,99548.28
2022-09-06T17:14:14.386Z,99546.56
2022-09-06T17:17:01.780Z,99555.25
2022-09-06T17:19:31.291Z,99546.81
2022-09-06T17:21:59.799Z,99550.25
2022-09-06T17:24:28.336Z,99556.50
2022-09-06T17:26:57.068Z,99558.09
2022-09-06T17:29:26.666Z,99555.06
2022-09-06T17:31:56.815Z,99558.38
2022-09-06T17:34:25.746Z,99563.28
2022-09-06T17:36:54.283Z,99560.09
2022-09-06T17:39:23.223Z,99564.31
2022-09-06T17:41:54.401Z,99569.34
2022-09-06T17:44:25.695Z,99563.47
2022-09-06T17:47:13.728Z,99564.81
2022-09-06T17:49:43.020Z,99563.84
2022-09-06T17:52:12.354Z,99571.53
2022-09-06T17:54:40.885Z,99571.91
2022-09-06T17:57:09.438Z,99575.91
2022-09-06T17:59:38.562Z,99572.97
2022-09-06T18:02:08.918Z,99588.66
2022-09-06T18:04:37.584Z,99587.19
2022-09-06T18:07:06.466Z,99592.06
2022-09-06T18:09:36.963Z,99587.69
2022-09-06T18:12:06.828Z,99599.38
2022-09-06T18:14:35.828Z,99597.66
2022-09-06T18:17:04.322Z,99605.09
2022-09-06T18:19:34.289Z,99599.22
2022-09-06T18:22:04.621Z,99595.81
2022-09-06T18:24:33.183Z,99595.41
2022-09-06T18:27:02.915Z,99609.50
2022-09-06T18:29:31.695Z,99602.13
2022-09-06T18:32:00.313Z,99607.00
2022-09-06T18:34:28.892Z,99603.03
2022-09-06T18:37:00.074Z,99603.59
2022-09-06T18:39:28.693Z,99607.59
2022-09-06T18:42:06.942Z,99610.00
2022-09-06T18:44:36.447Z,99610.53
2022-09-06T18:47:07.337Z,99608.94
2022-09-06T18:49:41.853Z,99602.19
2022-09-06T18:52:13.836Z,99607.16
2022-09-06T18:54:43.703Z,99617.34
2022-09-06T18:57:12.350Z,99619.38
2022-09-06T18:59:40.849Z,99619.50
2022-09-06T19:02:09.745Z,99620.75
2022-09-06T19:04:38.306Z,99614.75
2022-09-06T19:07:06.875Z,99610.19
2022-09-06T19:09:37.219Z,99610.50
2022-09-06T19:12:05.994Z,99612.75
2022-09-06T19:14:34.842Z,99609.63
2022-09-06T19:17:03.964Z,99607.28
2022-09-06T19:19:32.685Z,99602.03
2022-09-06T19:22:01.185Z,99601.59
2022-09-06T19:24:29.895Z,99600.84
2022-09-06T19:27:00.178Z,99596.69
2022-09-06T19:29:28.614Z,99601.28
2022-09-06T19:31:57.428Z,99593.34
2022-09-06T19:34:26.164Z,99601.47
2022-09-06T19:36:55.356Z,99595.06
2022-09-06T19:39:31.144Z,99598.94
2022-09-06T19:42:03.444Z,99601.47
2022-09-06T19:44:32.603Z,99596.25
2022-09-06T19:47:01.205Z,99598.81
2022-09-06T19:49:30.780Z,99587.66
2022-09-06T19:51:59.876Z,99587.66
2022-09-06T19:54:28.486Z,99579.72
2022-09-06T19:56:56.995Z,99581.34
2022-09-06T19:59:27.160Z,99583.47
2022-09-06T20:01:55.734Z,99585.91
2022-09-06T20:04:24.992Z,99588.59
2022-09-06T20:06:53.684Z,99583.66
2022-09-06T20:09:22.752Z,99580.56
2022-09-06T20:11:51.420Z,99584.31
2022-09-06T20:14:20.420Z,99578.22
2022-09-06T20:16:52.127Z,99580.25
2022-09-06T20:19:20.892Z,99577.56
2022-09-06T20:21:49.438Z,99574.44
2022-09-06T20:24:17.916Z,99571.56
2022-09-06T20:26:46.759Z,99577.47
2022-09-06T20:29:15.320Z,99573.91
2022-09-06T20:31:43.912Z,99570.06
2022-09-06T20:34:20.303Z,99565.88
2022-09-06T20:36:48.893Z,99561.69
2022-09-06T20:39:17.720Z,99567.06
2022-09-06T20:41:47.488Z,99560.66
2022-09-06T20:44:16.193Z,99560.53
2022-09-06T20:46:44.862Z,99560.00
2022-09-06T20:49:15.807Z,99559.13
2022-09-06T20:51:44.345Z,99550.25
2022-09-06T20:54:14.001Z,99565.34
2022-09-06T20:56:43.349Z,99560.00
2022-09-06T20:59:14.683Z,99564.38
2022-09-06T21:01:45.351Z,99563.53
2022-09-06T21:04:17.726Z,99572.13
2022-09-06T21:06:46.968Z,99571.13
2022-09-06T21:09:16.139Z,99572.13
2022-09-06T21:11:45.389Z,99573.72
2022-09-06T21:14:14.153Z,99574.88
2022-09-06T21:16:43.443Z,99568.88
2022-09-06T21:19:13.568Z,99575.09
2022-09-06T21:21:45.110Z,99562.34
2022-09-06T21:24:13.998Z,99562.34
2022-09-06T21:26:43.962Z,99568.38
2022-09-06T21:29:12.884Z,99561.75
2022-09-06T21:31:41.517Z,99558.53
2022-09-06T21:34:16.971Z,99557.47
2022-09-06T21:36:47.567Z,99560.66
2022-09-06T21:39:16.334Z,99557.25
2022-09-06T21:41:45.784Z,99558.88
2022-09-06T21:44:14.505Z,99554.47
2022-09-06T21:46:43.625Z,99565.59
2022-09-06T21:49:13.870Z,99558.31
2022-09-06T21:51:43.103Z,99552.53
2022-09-06T21:54:13.161Z,99551.66
2022-09-06T21:56:41.807Z,99558.94
2022-09-06T21:59:11.616Z,99558.25
2022-09-06T22:01:43.174Z,99553.97
2022-09-06T22:04:14.591Z,99551.91
2022-09-06T22:06:43.207Z,99552.31
2022-09-06T22:09:13.945Z,99549.00
2022-09-06T22:11:44.489Z,99551.50
2022-09-06T22:14:15.509Z,99549.13
2022-09-06T22:16:44.748Z,99542.06
2022-09-06T22:19:13.641Z,99539.59
2022-09-06T22:21:42.191Z,99546.94
2022-09-06T22:24:13.283Z,99539.06
2022-09-06T22:26:42.406Z,99547.16
2022-09-06T22:29:13.531Z,99549.09
2022-09-06T22:31:42.976Z,99549.59
2022-09-06T22:34:11.740Z,99540.69
2022-09-06T22:36:40.524Z,99536.09
2022-09-06T22:39:09.634Z,99542.41
2022-09-06T22:41:42.415Z,99532.22
2022-09-06T22:44:11.547Z,99537.25
2022-09-06T22:46:40.119Z,99544.59
2022-09-06T22:49:08.626Z,99531.63
2022-09-06T22:51:37.428Z,99536.59
2022-09-06T22:54:06.524Z,99531.44
2022-09-06T22:56:35.798Z,99530.41
2022-09-06T22:59:06.626Z,99524.00
2022-09-06T23:01:38.844Z,99527.88
2022-09-06T23:04:08.299Z,99518.34
2022-09-06T23:06:38.099Z,99514.06
2022-09-06T23:09:06.587Z,99519.41
2022-09-06T23:11:35.803Z,99519.50
2022-09-06T23:14:05.999Z,99511.06
2022-09-06T23:16:34.569Z,99525.34
2022-09-06T23:19:03.372Z,99524.09
2022-09-06T23:21:32.422Z,99519.25
2022-09-06T23:24:01.147Z,99521.84
2022-09-06T23:26:31.828Z,99515.44
2022-09-06T23:29:00.752Z,99514.78
2022-09-06T23:31:32.688Z,99511.72
2022-09-06T23:34:03.020Z,99514.03
2022-09-06T23:36:33.276Z,99508.59
2022-09-06T23:39:02.616Z,99508.59
2022-09-06T23:41:31.502Z,99510.50
2022-09-06T23:44:00.248Z,99515.28
2022-09-06T23:46:31.031Z,99512.03
2022-09-06T23:48:59.783Z,99510.59
2022-09-06T23:51:28.365Z,99510.50
2022-09-06T23:53:56.901Z,99508.66
2022-09-06T23:56:25.715Z,99503.88
2022-09-06T23:58:54.229Z,99504.06
